Time,TemperatureF,DewpointF,PressureIn,WindDirection,WindDirectionDegrees,WindSpeedMPH,WindSpeedGustMPH,Humidity,HourlyPrecipIn,Conditions,Clouds,dailyrainin,SolarRadiationWatts/m^2,SoftwareType,DateUTC
2013-08-21 00:44:00,65.0,65.0,-100.00,SW,224,0.0,4.0,99,0.00,,,0.02,0.000000,,2013-08-21 04:44:00,
2013-08-21 00:54:00,65.0,65.0,-100.00,SW,224,0.0,4.0,99,0.00,,,0.02,0.000000,,2013-08-21 04:54:00,
2013-08-21 01:02:00,65.0,65.0,-100.00,SW,224,0.0,4.0,99,0.00,,,0.02,0.000000,,2013-08-21 05:02:00,
2013-08-21 01:43:00,65.0,65.0,-100.00,West,281,0.0,3.0,99,0.00,,,0.02,0.000000,,2013-08-21 05:43:00,
2013-08-21 01:52:00,65.0,65.0,-100.00,West,281,0.0,3.0,99,0.00,,,0.02,0.000000,,2013-08-21 05:52:00,
2013-08-21 02:02:00,65.0,65.0,-100.00,West,281,0.0,3.0,99,0.00,,,0.02,0.000000,,2013-08-21 06:02:00,
2013-08-21 02:42:00,65.0,65.0,-100.00,South,187,0.0,2.0,99,0.00,,,0.02,0.000000,,2013-08-21 06:42:00,
2013-08-21 02:52:00,65.0,65.0,-100.00,South,187,0.0,2.0,99,0.00,,,0.02,0.000000,,2013-08-21 06:52:00,
2013-08-21 03:02:00,65.0,65.0,-100.00,South,187,0.0,2.0,99,0.00,,,0.02,0.000000,,2013-08-21 07:02:00,
2013-08-21 03:42:00,64.0,64.0,-100.00,SW,229,0.0,0.0,99,0.00,,,0.02,0.000000,,2013-08-21 07:42:00,
2013-08-21 03:53:00,64.0,64.0,-100.00,SW,229,0.0,0.0,99,0.00,,,0.02,0.000000,,2013-08-21 07:53:00,
2013-08-21 04:03:00,64.0,64.0,-100.00,SW,229,0.0,0.0,99,0.00,,,0.02,0.000000,,2013-08-21 08:03:00,
2013-08-21 04:43:00,64.0,64.0,-100.00,NNE,17,0.0,0.0,99,0.00,,,0.02,0.000000,,2013-08-21 08:43:00,
2013-08-21 04:53:00,64.0,64.0,-100.00,NNE,17,0.0,0.0,99,0.00,,,0.02,0.000000,,2013-08-21 08:53:00,
2013-08-21 05:01:00,64.0,64.0,-100.00,NNE,17,0.0,0.0,99,0.00,,,0.02,0.000000,,2013-08-21 09:01:00,
2013-08-21 05:43:00,64.0,64.0,-100.00,West,281,0.0,0.0,100,0.00,,,0.02,1.000000,,2013-08-21 09:43:00,
2013-08-21 05:54:00,64.0,64.0,-100.00,West,281,0.0,0.0,100,0.00,,,0.02,1.000000,,2013-08-21 09:54:00,
2013-08-21 06:03:00,64.0,64.0,-100.00,West,281,0.0,0.0,100,0.00,,,0.02,1.000000,,2013-08-21 10:03:00,
2013-08-21 06:43:00,63.0,63.0,-100.00,SW,221,2.0,4.0,100,0.00,,,0.02,0.000000,,2013-08-21 10:43:00,
2013-08-21 06:53:00,63.0,63.0,-100.00,SW,221,2.0,4.0,100,0.00,,,0.02,0.000000,,2013-08-21 10:53:00,
2013-08-21 07:03:00,63.0,63.0,-100.00,SW,221,2.0,4.0,100,0.00,,,0.02,0.000000,,2013-08-21 11:03:00,
2013-08-21 07:42:00,63.0,63.0,-100.00,SSE,151,2.0,4.0,100,0.03,,,0.05,1.000000,,2013-08-21 11:42:00,
2013-08-21 07:53:00,63.0,63.0,-100.00,SSE,151,2.0,4.0,100,0.03,,,0.05,1.000000,,2013-08-21 11:53:00,
2013-08-21 08:01:00,63.0,63.0,-100.00,SSE,151,2.0,4.0,100,0.03,,,0.05,1.000000,,2013-08-21 12:01:00,
2013-08-21 08:42:00,63.0,63.0,-100.00,WSW,248,2.0,7.0,99,0.01,,,-99.99,16.000000,,2013-08-21 12:42:00,
2013-08-21 08:52:00,63.0,63.0,-100.00,WSW,248,2.0,7.0,99,0.01,,,-99.99,16.000000,,2013-08-21 12:52:00,
2013-08-21 09:02:00,63.0,63.0,-100.00,WSW,248,2.0,7.0,99,0.01,,,-99.99,16.000000,,2013-08-21 13:02:00,
2013-08-21 09:42:00,65.0,65.0,-100.00,SSW,203,0.0,2.0,99,0.00,,,0.06,83.000000,,2013-08-21 13:42:00,
2013-08-21 09:52:00,65.0,65.0,-100.00,SSW,203,0.0,2.0,99,0.00,,,0.06,83.000000,,2013-08-21 13:52:00,
2013-08-21 10:02:00,65.0,65.0,-100.00,SSW,203,0.0,2.0,99,0.00,,,0.06,83.000000,,2013-08-21 14:02:00,
2013-08-21 10:42:00,68.0,66.0,-100.00,South,189,1.0,2.0,93,0.00,,,0.06,178.000000,,2013-08-21 14:42:00,
2013-08-21 10:52:00,68.0,66.0,-100.00,South,189,1.0,2.0,93,0.00,,,0.06,178.000000,,2013-08-21 14:52:00,
2013-08-21 11:01:00,68.0,66.0,-100.00,South,189,1.0,2.0,93,0.00,,,0.06,178.000000,,2013-08-21 15:01:00,
2013-08-21 11:04:00,69.0,66.0,-100.00,WSW,241,1.0,6.0,89,0.00,,,0.06,229.000000,,2013-08-21 15:04:00,
2013-08-21 11:43:00,69.0,66.0,-100.00,WSW,241,1.0,6.0,89,0.00,,,0.06,229.000000,,2013-08-21 15:43:00,
2013-08-21 11:55:00,69.0,66.0,-100.00,WSW,241,1.0,6.0,89,0.00,,,0.06,229.000000,,2013-08-21 15:55:00,
2013-08-21 12:04:00,67.0,64.0,-100.00,WSW,245,3.0,6.0,91,0.00,,,0.06,140.000000,,2013-08-21 16:04:00,
2013-08-21 12:43:00,67.0,64.0,-100.00,WSW,245,3.0,6.0,91,0.00,,,0.06,140.000000,,2013-08-21 16:43:00,
2013-08-21 12:53:00,67.0,64.0,-100.00,WSW,245,3.0,6.0,91,0.00,,,0.06,140.000000,,2013-08-21 16:53:00,
2013-08-21 13:43:00,68.0,66.0,-100.00,West,268,0.0,6.0,94,0.01,,,0.07,186.000000,,2013-08-21 17:43:00,
2013-08-21 13:53:00,68.0,66.0,-100.00,West,268,0.0,6.0,94,0.01,,,0.07,186.000000,,2013-08-21 17:53:00,
2013-08-21 14:03:00,68.0,66.0,-100.00,West,268,0.0,6.0,94,0.01,,,0.07,186.000000,,2013-08-21 18:03:00,
2013-08-21 14:42:00,69.0,66.0,-100.00,SW,230,2.0,4.0,91,0.01,,,0.08,186.000000,,2013-08-21 18:42:00,
2013-08-21 14:52:00,69.0,66.0,-100.00,SW,230,2.0,4.0,91,0.01,,,0.08,186.000000,,2013-08-21 18:52:00,
2013-08-21 15:01:00,69.0,66.0,-100.00,SW,230,2.0,4.0,91,0.01,,,0.08,186.000000,,2013-08-21 19:01:00,
2013-08-21 15:42:00,69.0,66.0,-100.00,SW,224,2.0,5.0,91,0.01,,,0.09,216.000000,,2013-08-21 19:42:00,
2013-08-21 15:53:00,69.0,66.0,-100.00,SW,224,2.0,5.0,91,0.01,,,0.09,216.000000,,2013-08-21 19:53:00,
2013-08-21 16:03:00,69.0,66.0,-100.00,SW,224,2.0,5.0,91,0.01,,,0.09,216.000000,,2013-08-21 20:03:00,
2013-08-21 16:42:00,71.0,67.0,-100.00,NNW,338,3.0,6.0,87,0.00,,,0.09,268.000000,,2013-08-21 20:42:00,
2013-08-21 16:52:00,71.0,67.0,-100.00,NNW,338,3.0,6.0,87,0.00,,,0.09,268.000000,,2013-08-21 20:52:00,
2013-08-21 17:02:00,71.0,67.0,-100.00,NNW,338,3.0,6.0,87,0.00,,,0.09,268.000000,,2013-08-21 21:02:00,
2013-08-21 17:04:00,71.0,68.0,-100.00,SW,221,3.0,5.0,89,0.00,,,0.09,173.000000,,2013-08-21 21:04:00,
2013-08-21 17:45:00,71.0,68.0,-100.00,SW,221,3.0,5.0,89,0.00,,,0.09,173.000000,,2013-08-21 21:45:00,
2013-08-21 17:55:00,71.0,68.0,-100.00,SW,221,3.0,5.0,89,0.00,,,0.09,173.000000,,2013-08-21 21:55:00,
2013-08-21 18:04:00,70.0,67.0,-100.00,SW,231,4.0,7.0,89,0.00,,,-99.99,179.000000,,2013-08-21 22:04:00,
2013-08-21 18:44:00,70.0,67.0,-100.00,SW,231,4.0,7.0,89,0.00,,,-99.99,179.000000,,2013-08-21 22:44:00,
2013-08-21 18:53:00,70.0,67.0,-100.00,SW,231,4.0,7.0,89,0.00,,,-99.99,179.000000,,2013-08-21 22:53:00,
2013-08-21 19:43:00,69.0,67.0,-100.00,WNW,282,1.0,6.0,94,0.00,,,0.07,66.000000,,2013-08-21 23:43:00,
2013-08-21 19:53:00,69.0,67.0,-100.00,WNW,282,1.0,6.0,94,0.00,,,0.07,66.000000,,2013-08-21 23:53:00,
2013-08-21 20:02:00,69.0,67.0,-100.00,WNW,282,1.0,6.0,94,0.00,,,0.07,66.000000,,2013-08-22 00:02:00,
2013-08-21 20:42:00,67.0,66.0,-100.00,West,265,1.0,3.0,98,0.00,,,0.07,31.000000,,2013-08-22 00:42:00,
2013-08-21 20:52:00,67.0,66.0,-100.00,West,265,1.0,3.0,98,0.00,,,0.07,31.000000,,2013-08-22 00:52:00,
2013-08-21 21:02:00,67.0,66.0,-100.00,West,265,1.0,3.0,98,0.00,,,0.07,31.000000,,2013-08-22 01:02:00,
2013-08-21 21:42:00,64.0,63.0,-100.00,WSW,257,0.0,3.0,98,0.00,,,0.07,2.000000,,2013-08-22 01:42:00,
2013-08-21 21:52:00,64.0,63.0,-100.00,WSW,257,0.0,3.0,98,0.00,,,0.07,2.000000,,2013-08-22 01:52:00,
2013-08-21 22:03:00,64.0,63.0,-100.00,WSW,257,0.0,3.0,98,0.00,,,0.07,2.000000,,2013-08-22 02:03:00,
2013-08-21 22:52:00,62.0,62.0,-100.00,NE,50,1.0,4.0,99,0.00,,,0.07,0.000000,,2013-08-22 02:52:00,
2013-08-21 23:02:00,62.0,62.0,-100.00,NE,50,1.0,4.0,99,0.00,,,0.07,0.000000,,2013-08-22 03:02:00,
2013-08-21 23:04:00,60.0,60.0,-100.00,East,84,1.0,3.0,99,0.00,,,0.07,0.000000,,2013-08-22 03:04:00,
2013-08-21 23:45:00,60.0,60.0,-100.00,East,84,1.0,3.0,99,0.00,,,0.07,0.000000,,2013-08-22 03:45:00,
2013-08-21 23:54:00,60.0,60.0,-100.00,East,84,1.0,3.0,99,0.00,,,0.07,0.000000,,2013-08-22 03:54:00,